sensor_id;sensor_type;location;lat;lon;timestamp;P1;durP1;ratioP1;P2;durP2;ratioP2
44110;SDS011;29774;52.664;5.074;2022-12-15T00:02:44;2.35;;;1.83;;
44110;SDS011;29774;52.664;5.074;2022-12-15T00:05:28;5.00;;;2.60;;
44110;SDS011;29774;52.664;5.074;2022-12-15T00:08:12;6.90;;;3.22;;
44110;SDS011;29774;52.664;5.074;2022-12-15T00:10:56;4.78;;;3.00;;
44110;SDS011;29774;52.664;5.074;2022-12-15T00:13:43;4.28;;;1.70;;
44110;SDS011;29774;52.664;5.074;2022-12-15T00:16:28;3.30;;;2.30;;
44110;SDS011;29774;52.664;5.074;2022-12-15T00:19:12;3.25;;;2.20;;
44110;SDS011;29774;52.664;5.074;2022-12-15T00:21:56;4.60;;;2.15;;
44110;SDS011;29774;52.664;5.074;2022-12-15T00:24:40;3.83;;;2.33;;
44110;SDS011;29774;52.664;5.074;2022-12-15T00:27:24;4.15;;;2.30;;
44110;SDS011;29774;52.664;5.074;2022-12-15T00:30:08;5.10;;;1.83;;
44110;SDS011;29774;52.664;5.074;2022-12-15T00:32:53;2.90;;;1.80;;
44110;SDS011;29774;52.664;5.074;2022-12-15T00:35:37;5.55;;;3.08;;
44110;SDS011;29774;52.664;5.074;2022-12-15T00:38:21;2.88;;;1.77;;
44110;SDS011;29774;52.664;5.074;2022-12-15T00:41:07;3.63;;;2.20;;
44110;SDS011;29774;52.664;5.074;2022-12-15T00:43:33;3.47;;;1.80;;
44110;SDS011;29774;52.664;5.074;2022-12-15T00:46:00;5.47;;;1.70;;
44110;SDS011;29774;52.664;5.074;2022-12-15T00:48:45;1.77;;;1.30;;
44110;SDS011;29774;52.664;5.074;2022-12-15T00:51:12;2.25;;;1.98;;
44110;SDS011;29774;52.664;5.074;2022-12-15T00:53:38;1.95;;;1.30;;
44110;SDS011;29774;52.664;5.074;2022-12-15T00:56:23;2.58;;;1.85;;
44110;SDS011;29774;52.664;5.074;2022-12-15T00:59:08;4.78;;;2.45;;
44110;SDS011;29774;52.664;5.074;2022-12-15T01:01:52;2.80;;;1.52;;
44110;SDS011;29774;52.664;5.074;2022-12-15T01:04:37;4.70;;;1.98;;
44110;SDS011;29774;52.664;5.074;2022-12-15T01:07:20;3.03;;;1.45;;
44110;SDS011;29774;52.664;5.074;2022-12-15T01:10:05;1.75;;;1.52;;
44110;SDS011;29774;52.664;5.074;2022-12-15T01:12:49;2.45;;;1.73;;
44110;SDS011;29774;52.664;5.074;2022-12-15T01:15:36;2.03;;;1.58;;
44110;SDS011;29774;52.664;5.074;2022-12-15T01:18:21;1.85;;;1.33;;
44110;SDS011;29774;52.664;5.074;2022-12-15T01:21:06;4.13;;;1.75;;
44110;SDS011;29774;52.664;5.074;2022-12-15T01:23:34;2.15;;;1.30;;
44110;SDS011;29774;52.664;5.074;2022-12-15T01:26:00;3.90;;;1.40;;
44110;SDS011;29774;52.664;5.074;2022-12-15T01:28:26;1.90;;;1.67;;
44110;SDS011;29774;52.664;5.074;2022-12-15T01:30:52;3.63;;;1.60;;
44110;SDS011;29774;52.664;5.074;2022-12-15T01:33:19;4.18;;;1.42;;
44110;SDS011;29774;52.664;5.074;2022-12-15T01:35:53;1.85;;;1.33;;
44110;SDS011;29774;52.664;5.074;2022-12-15T01:38:20;2.78;;;1.30;;
44110;SDS011;29774;52.664;5.074;2022-12-15T01:40:49;1.52;;;1.38;;
44110;SDS011;29774;52.664;5.074;2022-12-15T01:43:17;2.40;;;1.50;;
44110;SDS011;29774;52.664;5.074;2022-12-15T01:45:56;2.08;;;1.33;;
44110;SDS011;29774;52.664;5.074;2022-12-15T01:48:24;2.35;;;1.60;;
44110;SDS011;29774;52.664;5.074;2022-12-15T01:51:01;2.30;;;1.75;;
44110;SDS011;29774;52.664;5.074;2022-12-15T01:53:32;2.65;;;2.00;;
44110;SDS011;29774;52.664;5.074;2022-12-15T01:56:02;1.85;;;1.30;;
44110;SDS011;29774;52.664;5.074;2022-12-15T01:58:29;1.80;;;1.55;;
44110;SDS011;29774;52.664;5.074;2022-12-15T02:00:55;3.22;;;1.50;;
44110;SDS011;29774;52.664;5.074;2022-12-15T02:03:22;3.08;;;1.50;;
44110;SDS011;29774;52.664;5.074;2022-12-15T02:05:48;3.45;;;1.77;;
44110;SDS011;29774;52.664;5.074;2022-12-15T02:08:14;2.80;;;1.80;;
44110;SDS011;29774;52.664;5.074;2022-12-15T02:10:56;2.65;;;1.80;;
44110;SDS011;29774;52.664;5.074;2022-12-15T02:13:59;4.30;;;1.60;;
44110;SDS011;29774;52.664;5.074;2022-12-15T02:16:26;1.90;;;1.40;;
44110;SDS011;29774;52.664;5.074;2022-12-15T02:19:40;2.45;;;1.55;;
44110;SDS011;29774;52.664;5.074;2022-12-15T02:25:21;3.33;;;1.77;;
44110;SDS011;29774;52.664;5.074;2022-12-15T02:30:37;3.50;;;2.20;;
44110;SDS011;29774;52.664;5.074;2022-12-15T02:33:59;3.55;;;1.70;;
44110;SDS011;29774;52.664;5.074;2022-12-15T02:36:59;4.03;;;1.92;;
44110;SDS011;29774;52.664;5.074;2022-12-15T02:39:36;9.32;;;2.40;;
44110;SDS011;29774;52.664;5.074;2022-12-15T02:42:01;3.78;;;2.03;;
44110;SDS011;29774;52.664;5.074;2022-12-15T02:44:47;2.65;;;2.13;;
44110;SDS011;29774;52.664;5.074;2022-12-15T02:47:22;3.50;;;1.95;;
44110;SDS011;29774;52.664;5.074;2022-12-15T02:50:33;1.92;;;1.70;;
44110;SDS011;29774;52.664;5.074;2022-12-15T03:01:49;2.20;;;2.00;;
44110;SDS011;29774;52.664;5.074;2022-12-15T03:04:18;3.22;;;2.22;;
44110;SDS011;29774;52.664;5.074;2022-12-15T03:06:44;4.50;;;2.10;;
44110;SDS011;29774;52.664;5.074;2022-12-15T03:09:17;2.50;;;2.00;;
44110;SDS011;29774;52.664;5.074;2022-12-15T03:11:42;3.63;;;2.25;;
44110;SDS011;29774;52.664;5.074;2022-12-15T03:14:08;7.07;;;2.00;;
44110;SDS011;29774;52.664;5.074;2022-12-15T03:16:34;3.35;;;2.25;;
44110;SDS011;29774;52.664;5.074;2022-12-15T03:18:59;2.75;;;2.13;;
44110;SDS011;29774;52.664;5.074;2022-12-15T03:21:25;1.88;;;1.77;;
44110;SDS011;29774;52.664;5.074;2022-12-15T03:23:51;2.60;;;2.17;;
44110;SDS011;29774;52.664;5.074;2022-12-15T03:26:17;5.05;;;2.08;;
44110;SDS011;29774;52.664;5.074;2022-12-15T03:28:42;3.53;;;2.72;;
44110;SDS011;29774;52.664;5.074;2022-12-15T03:31:08;3.53;;;2.10;;
44110;SDS011;29774;52.664;5.074;2022-12-15T03:33:34;4.53;;;2.13;;
44110;SDS011;29774;52.664;5.074;2022-12-15T03:35:59;2.95;;;2.08;;
44110;SDS011;29774;52.664;5.074;2022-12-15T03:38:25;3.03;;;2.05;;
44110;SDS011;29774;52.664;5.074;2022-12-15T03:40:50;2.65;;;1.70;;
44110;SDS011;29774;52.664;5.074;2022-12-15T03:43:16;4.10;;;2.05;;
44110;SDS011;29774;52.664;5.074;2022-12-15T03:45:41;2.55;;;2.35;;
44110;SDS011;29774;52.664;5.074;2022-12-15T03:48:07;3.35;;;2.15;;
44110;SDS011;29774;52.664;5.074;2022-12-15T03:50:33;3.05;;;1.80;;
44110;SDS011;29774;52.664;5.074;2022-12-15T03:53:00;4.18;;;2.00;;
44110;SDS011;29774;52.664;5.074;2022-12-15T03:55:26;3.15;;;1.67;;
44110;SDS011;29774;52.664;5.074;2022-12-15T03:57:55;2.63;;;2.38;;
44110;SDS011;29774;52.664;5.074;2022-12-15T04:00:23;4.18;;;2.30;;
44110;SDS011;29774;52.664;5.074;2022-12-15T04:02:49;2.63;;;1.92;;
44110;SDS011;29774;52.664;5.074;2022-12-15T04:05:23;4.68;;;1.92;;
44110;SDS011;29774;52.664;5.074;2022-12-15T04:07:53;4.72;;;2.28;;
44110;SDS011;29774;52.664;5.074;2022-12-15T04:10:21;3.50;;;2.20;;
44110;SDS011;29774;52.664;5.074;2022-12-15T04:12:48;2.65;;;1.80;;
44110;SDS011;29774;52.664;5.074;2022-12-15T04:15:13;3.08;;;2.08;;
44110;SDS011;29774;52.664;5.074;2022-12-15T04:17:39;3.80;;;2.67;;
44110;SDS011;29774;52.664;5.074;2022-12-15T04:20:05;3.67;;;2.25;;
44110;SDS011;29774;52.664;5.074;2022-12-15T04:22:39;3.33;;;2.30;;
44110;SDS011;29774;52.664;5.074;2022-12-15T04:25:11;4.10;;;2.05;;
44110;SDS011;29774;52.664;5.074;2022-12-15T04:28:03;4.15;;;2.30;;
44110;SDS011;29774;52.664;5.074;2022-12-15T04:30:56;3.45;;;2.20;;
44110;SDS011;29774;52.664;5.074;2022-12-15T04:33:44;3.03;;;2.38;;
44110;SDS011;29774;52.664;5.074;2022-12-15T04:36:32;3.97;;;2.30;;
44110;SDS011;29774;52.664;5.074;2022-12-15T04:39:17;3.17;;;1.92;;
44110;SDS011;29774;52.664;5.074;2022-12-15T04:42:01;2.92;;;1.98;;
44110;SDS011;29774;52.664;5.074;2022-12-15T04:44:47;3.35;;;1.90;;
44110;SDS011;29774;52.664;5.074;2022-12-15T04:47:32;2.70;;;1.70;;
44110;SDS011;29774;52.664;5.074;2022-12-15T04:50:17;2.15;;;1.80;;
44110;SDS011;29774;52.664;5.074;2022-12-15T04:53:11;3.00;;;2.00;;
44110;SDS011;29774;52.664;5.074;2022-12-15T04:55:57;2.25;;;1.58;;
44110;SDS011;29774;52.664;5.074;2022-12-15T04:58:41;2.45;;;1.75;;
44110;SDS011;29774;52.664;5.074;2022-12-15T05:01:25;3.80;;;2.05;;
44110;SDS011;29774;52.664;5.074;2022-12-15T05:04:09;3.42;;;1.75;;
44110;SDS011;29774;52.664;5.074;2022-12-15T05:06:53;4.25;;;1.90;;
44110;SDS011;29774;52.664;5.074;2022-12-15T05:09:37;3.30;;;2.28;;
44110;SDS011;29774;52.664;5.074;2022-12-15T05:12:21;3.85;;;1.83;;
44110;SDS011;29774;52.664;5.074;2022-12-15T05:15:05;2.67;;;2.00;;
44110;SDS011;29774;52.664;5.074;2022-12-15T05:17:50;2.78;;;2.00;;
44110;SDS011;29774;52.664;5.074;2022-12-15T05:20:34;2.95;;;1.85;;
44110;SDS011;29774;52.664;5.074;2022-12-15T05:23:18;6.75;;;2.50;;
44110;SDS011;29774;52.664;5.074;2022-12-15T05:26:02;5.82;;;2.45;;
44110;SDS011;29774;52.664;5.074;2022-12-15T05:28:46;4.13;;;2.30;;
44110;SDS011;29774;52.664;5.074;2022-12-15T05:31:31;3.60;;;2.05;;
44110;SDS011;29774;52.664;5.074;2022-12-15T05:34:15;5.07;;;2.20;;
44110;SDS011;29774;52.664;5.074;2022-12-15T05:36:42;3.60;;;2.42;;
44110;SDS011;29774;52.664;5.074;2022-12-15T05:39:08;3.50;;;2.20;;
44110;SDS011;29774;52.664;5.074;2022-12-15T05:41:33;4.72;;;2.67;;
44110;SDS011;29774;52.664;5.074;2022-12-15T05:43:59;4.22;;;2.53;;
44110;SDS011;29774;52.664;5.074;2022-12-15T05:46:25;7.32;;;2.75;;
44110;SDS011;29774;52.664;5.074;2022-12-15T05:48:51;4.53;;;2.47;;
44110;SDS011;29774;52.664;5.074;2022-12-15T05:51:16;4.20;;;2.60;;
44110;SDS011;29774;52.664;5.074;2022-12-15T05:53:42;4.60;;;2.90;;
44110;SDS011;29774;52.664;5.074;2022-12-15T05:56:12;4.25;;;2.65;;
44110;SDS011;29774;52.664;5.074;2022-12-15T05:58:38;8.07;;;2.88;;
44110;SDS011;29774;52.664;5.074;2022-12-15T06:01:09;4.65;;;2.60;;
44110;SDS011;29774;52.664;5.074;2022-12-15T06:03:37;3.72;;;2.65;;
44110;SDS011;29774;52.664;5.074;2022-12-15T06:06:03;7.53;;;3.17;;
44110;SDS011;29774;52.664;5.074;2022-12-15T06:08:30;4.13;;;2.70;;
44110;SDS011;29774;52.664;5.074;2022-12-15T06:11:01;5.30;;;2.80;;
44110;SDS011;29774;52.664;5.074;2022-12-15T06:13:27;4.93;;;3.08;;
44110;SDS011;29774;52.664;5.074;2022-12-15T06:15:59;5.13;;;3.38;;
44110;SDS011;29774;52.664;5.074;2022-12-15T06:18:28;4.20;;;3.15;;
44110;SDS011;29774;52.664;5.074;2022-12-15T06:20:59;5.22;;;3.30;;
44110;SDS011;29774;52.664;5.074;2022-12-15T06:23:27;6.00;;;2.60;;
44110;SDS011;29774;52.664;5.074;2022-12-15T06:25:53;7.80;;;3.28;;
44110;SDS011;29774;52.664;5.074;2022-12-15T06:28:20;4.80;;;3.42;;
44110;SDS011;29774;52.664;5.074;2022-12-15T06:30:51;6.90;;;3.15;;
44110;SDS011;29774;52.664;5.074;2022-12-15T06:33:19;5.07;;;3.92;;
44110;SDS011;29774;52.664;5.074;2022-12-15T06:35:47;5.90;;;3.95;;
44110;SDS011;29774;52.664;5.074;2022-12-15T06:38:13;6.97;;;2.88;;
44110;SDS011;29774;52.664;5.074;2022-12-15T06:40:39;8.18;;;3.47;;
44110;SDS011;29774;52.664;5.074;2022-12-15T06:43:06;6.82;;;3.50;;
44110;SDS011;29774;52.664;5.074;2022-12-15T06:45:32;7.05;;;3.10;;
44110;SDS011;29774;52.664;5.074;2022-12-15T06:47:59;4.95;;;2.83;;
44110;SDS011;29774;52.664;5.074;2022-12-15T06:50:24;9.50;;;3.83;;
44110;SDS011;29774;52.664;5.074;2022-12-15T06:52:50;5.05;;;3.70;;
44110;SDS011;29774;52.664;5.074;2022-12-15T06:55:15;6.03;;;3.15;;
44110;SDS011;29774;52.664;5.074;2022-12-15T06:57:41;6.07;;;3.20;;
44110;SDS011;29774;52.664;5.074;2022-12-15T07:00:07;5.57;;;3.13;;
44110;SDS011;29774;52.664;5.074;2022-12-15T07:02:33;7.43;;;3.55;;
44110;SDS011;29774;52.664;5.074;2022-12-15T07:04:59;6.88;;;3.83;;
44110;SDS011;29774;52.664;5.074;2022-12-15T07:07:25;5.30;;;3.45;;
44110;SDS011;29774;52.664;5.074;2022-12-15T07:09:51;7.07;;;3.90;;
44110;SDS011;29774;52.664;5.074;2022-12-15T07:12:17;8.15;;;3.45;;
44110;SDS011;29774;52.664;5.074;2022-12-15T07:14:42;8.45;;;3.85;;
44110;SDS011;29774;52.664;5.074;2022-12-15T07:17:08;8.43;;;3.83;;
44110;SDS011;29774;52.664;5.074;2022-12-15T07:19:35;4.60;;;3.72;;
44110;SDS011;29774;52.664;5.074;2022-12-15T07:22:01;5.22;;;3.47;;
44110;SDS011;29774;52.664;5.074;2022-12-15T07:24:26;5.38;;;3.60;;
44110;SDS011;29774;52.664;5.074;2022-12-15T07:26:52;9.65;;;3.75;;
44110;SDS011;29774;52.664;5.074;2022-12-15T07:29:18;7.90;;;3.67;;
44110;SDS011;29774;52.664;5.074;2022-12-15T07:31:44;9.25;;;3.95;;
44110;SDS011;29774;52.664;5.074;2022-12-15T07:34:10;9.25;;;4.25;;
44110;SDS011;29774;52.664;5.074;2022-12-15T07:36:36;7.15;;;3.60;;
44110;SDS011;29774;52.664;5.074;2022-12-15T07:39:02;8.30;;;4.45;;
44110;SDS011;29774;52.664;5.074;2022-12-15T07:41:29;6.32;;;4.25;;
44110;SDS011;29774;52.664;5.074;2022-12-15T07:43:55;7.70;;;3.58;;
44110;SDS011;29774;52.664;5.074;2022-12-15T07:46:21;9.43;;;4.53;;
44110;SDS011;29774;52.664;5.074;2022-12-15T07:48:48;5.32;;;3.75;;
44110;SDS011;29774;52.664;5.074;2022-12-15T07:51:13;6.13;;;4.18;;
44110;SDS011;29774;52.664;5.074;2022-12-15T07:53:39;6.22;;;3.53;;
44110;SDS011;29774;52.664;5.074;2022-12-15T07:56:04;5.18;;;3.47;;
44110;SDS011;29774;52.664;5.074;2022-12-15T07:58:30;6.15;;;3.78;;
44110;SDS011;29774;52.664;5.074;2022-12-15T08:00:59;5.15;;;3.20;;
44110;SDS011;29774;52.664;5.074;2022-12-15T08:03:27;5.00;;;3.60;;
44110;SDS011;29774;52.664;5.074;2022-12-15T08:05:53;9.02;;;4.10;;
44110;SDS011;29774;52.664;5.074;2022-12-15T08:08:19;4.60;;;3.45;;
44110;SDS011;29774;52.664;5.074;2022-12-15T08:10:46;5.28;;;3.50;;
44110;SDS011;29774;52.664;5.074;2022-12-15T08:13:13;5.90;;;3.22;;
44110;SDS011;29774;52.664;5.074;2022-12-15T08:15:39;6.78;;;3.40;;
44110;SDS011;29774;52.664;5.074;2022-12-15T08:18:05;5.50;;;3.60;;
44110;SDS011;29774;52.664;5.074;2022-12-15T08:20:32;6.70;;;4.05;;
44110;SDS011;29774;52.664;5.074;2022-12-15T08:22:59;8.60;;;3.50;;
44110;SDS011;29774;52.664;5.074;2022-12-15T08:25:25;5.18;;;3.85;;
44110;SDS011;29774;52.664;5.074;2022-12-15T08:27:54;7.70;;;4.15;;
44110;SDS011;29774;52.664;5.074;2022-12-15T08:30:20;8.45;;;4.13;;
44110;SDS011;29774;52.664;5.074;2022-12-15T08:32:46;7.25;;;3.90;;
44110;SDS011;29774;52.664;5.074;2022-12-15T08:35:12;7.07;;;3.80;;
44110;SDS011;29774;52.664;5.074;2022-12-15T08:37:38;6.47;;;3.85;;
44110;SDS011;29774;52.664;5.074;2022-12-15T08:40:05;10.95;;;4.18;;
44110;SDS011;29774;52.664;5.074;2022-12-15T08:42:34;7.10;;;3.55;;
44110;SDS011;29774;52.664;5.074;2022-12-15T08:45:01;8.05;;;3.55;;
44110;SDS011;29774;52.664;5.074;2022-12-15T08:47:27;11.45;;;4.22;;
44110;SDS011;29774;52.664;5.074;2022-12-15T08:49:53;7.22;;;4.60;;
44110;SDS011;29774;52.664;5.074;2022-12-15T08:52:20;8.90;;;4.20;;
44110;SDS011;29774;52.664;5.074;2022-12-15T08:54:45;10.90;;;4.30;;
44110;SDS011;29774;52.664;5.074;2022-12-15T08:57:11;11.25;;;3.85;;
44110;SDS011;29774;52.664;5.074;2022-12-15T08:59:37;5.93;;;3.67;;
44110;SDS011;29774;52.664;5.074;2022-12-15T09:02:02;7.80;;;3.85;;
44110;SDS011;29774;52.664;5.074;2022-12-15T09:04:28;8.18;;;3.45;;
44110;SDS011;29774;52.664;5.074;2022-12-15T09:06:54;10.35;;;3.45;;
44110;SDS011;29774;52.664;5.074;2022-12-15T09:09:20;8.95;;;3.20;;
44110;SDS011;29774;52.664;5.074;2022-12-15T09:11:46;6.93;;;3.10;;
44110;SDS011;29774;52.664;5.074;2022-12-15T09:14:12;7.07;;;2.75;;
44110;SDS011;29774;52.664;5.074;2022-12-15T09:16:38;7.18;;;3.33;;
44110;SDS011;29774;52.664;5.074;2022-12-15T09:19:04;6.75;;;2.88;;
44110;SDS011;29774;52.664;5.074;2022-12-15T09:21:32;7.78;;;2.75;;
44110;SDS011;29774;52.664;5.074;2022-12-15T09:23:59;6.07;;;2.95;;
44110;SDS011;29774;52.664;5.074;2022-12-15T09:26:27;3.72;;;2.45;;
44110;SDS011;29774;52.664;5.074;2022-12-15T09:28:54;4.88;;;3.20;;
44110;SDS011;29774;52.664;5.074;2022-12-15T09:31:21;5.38;;;2.60;;
44110;SDS011;29774;52.664;5.074;2022-12-15T09:33:50;12.50;;;3.42;;
44110;SDS011;29774;52.664;5.074;2022-12-15T09:36:17;6.93;;;2.55;;
44110;SDS011;29774;52.664;5.074;2022-12-15T09:38:43;4.43;;;2.45;;
44110;SDS011;29774;52.664;5.074;2022-12-15T09:44:24;5.63;;;2.80;;
44110;SDS011;29774;52.664;5.074;2022-12-15T09:54:44;9.68;;;3.45;;
44110;SDS011;29774;52.664;5.074;2022-12-15T09:57:24;10.57;;;3.38;;
44110;SDS011;29774;52.664;5.074;2022-12-15T10:08:28;7.53;;;3.17;;
44110;SDS011;29774;52.664;5.074;2022-12-15T10:16:20;8.20;;;2.25;;
44110;SDS011;29774;52.664;5.074;2022-12-15T10:21:20;6.93;;;2.25;;
44110;SDS011;29774;52.664;5.074;2022-12-15T10:23:49;3.65;;;1.92;;
44110;SDS011;29774;52.664;5.074;2022-12-15T10:26:18;5.35;;;1.90;;
44110;SDS011;29774;52.664;5.074;2022-12-15T10:31:52;4.63;;;1.67;;
44110;SDS011;29774;52.664;5.074;2022-12-15T10:34:31;5.28;;;1.88;;
44110;SDS011;29774;52.664;5.074;2022-12-15T10:36:58;5.70;;;1.40;;
44110;SDS011;29774;52.664;5.074;2022-12-15T10:39:34;6.78;;;1.58;;
44110;SDS011;29774;52.664;5.074;2022-12-15T10:44:43;5.00;;;1.70;;
44110;SDS011;29774;52.664;5.074;2022-12-15T10:47:13;5.88;;;2.00;;
44110;SDS011;29774;52.664;5.074;2022-12-15T10:49:44;6.15;;;1.90;;
44110;SDS011;29774;52.664;5.074;2022-12-15T10:52:23;4.55;;;2.05;;
44110;SDS011;29774;52.664;5.074;2022-12-15T10:54:58;5.88;;;1.90;;
44110;SDS011;29774;52.664;5.074;2022-12-15T10:57:25;6.07;;;2.22;;
44110;SDS011;29774;52.664;5.074;2022-12-15T11:02:39;4.88;;;1.77;;
44110;SDS011;29774;52.664;5.074;2022-12-15T11:15:38;5.13;;;1.30;;
44110;SDS011;29774;52.664;5.074;2022-12-15T11:21:24;4.75;;;1.85;;
44110;SDS011;29774;52.664;5.074;2022-12-15T11:24:04;7.72;;;2.33;;
44110;SDS011;29774;52.664;5.074;2022-12-15T11:31:50;10.88;;;2.67;;
44110;SDS011;29774;52.664;5.074;2022-12-15T11:34:21;6.50;;;2.42;;
44110;SDS011;29774;52.664;5.074;2022-12-15T11:38:02;4.55;;;2.78;;
44110;SDS011;29774;52.664;5.074;2022-12-15T11:48:46;8.93;;;3.55;;
44110;SDS011;29774;52.664;5.074;2022-12-15T11:51:40;10.60;;;2.67;;
44110;SDS011;29774;52.664;5.074;2022-12-15T11:54:21;8.85;;;3.72;;
44110;SDS011;29774;52.664;5.074;2022-12-15T12:05:29;13.48;;;3.50;;
44110;SDS011;29774;52.664;5.074;2022-12-15T12:10:56;5.82;;;2.90;;
44110;SDS011;29774;52.664;5.074;2022-12-15T12:16:27;9.27;;;3.22;;
44110;SDS011;29774;52.664;5.074;2022-12-15T12:19:08;8.20;;;3.00;;
44110;SDS011;29774;52.664;5.074;2022-12-15T12:21:42;7.10;;;3.80;;
44110;SDS011;29774;52.664;5.074;2022-12-15T12:24:12;5.93;;;2.15;;
44110;SDS011;29774;52.664;5.074;2022-12-15T12:26:56;5.40;;;2.05;;
44110;SDS011;29774;52.664;5.074;2022-12-15T12:29:30;3.83;;;2.20;;
44110;SDS011;29774;52.664;5.074;2022-12-15T12:32:10;5.07;;;1.90;;
44110;SDS011;29774;52.664;5.074;2022-12-15T12:37:43;5.25;;;2.08;;
44110;SDS011;29774;52.664;5.074;2022-12-15T12:41:03;4.50;;;1.50;;
44110;SDS011;29774;52.664;5.074;2022-12-15T12:43:33;5.13;;;1.52;;
44110;SDS011;29774;52.664;5.074;2022-12-15T12:46:12;4.75;;;1.30;;
44110;SDS011;29774;52.664;5.074;2022-12-15T12:53:49;3.63;;;1.50;;
44110;SDS011;29774;52.664;5.074;2022-12-15T13:01:54;6.80;;;1.27;;
44110;SDS011;29774;52.664;5.074;2022-12-15T13:20:47;3.75;;;0.98;;
44110;SDS011;29774;52.664;5.074;2022-12-15T13:28:22;3.30;;;0.90;;
44110;SDS011;29774;52.664;5.074;2022-12-15T13:39:50;3.05;;;0.98;;
44110;SDS011;29774;52.664;5.074;2022-12-15T13:44:31;4.43;;;1.15;;
44110;SDS011;29774;52.664;5.074;2022-12-15T13:47:12;4.68;;;1.08;;
44110;SDS011;29774;52.664;5.074;2022-12-15T13:52:30;3.67;;;1.13;;
44110;SDS011;29774;52.664;5.074;2022-12-15T13:55:04;2.85;;;1.30;;
44110;SDS011;29774;52.664;5.074;2022-12-15T13:57:44;6.07;;;1.75;;
44110;SDS011;29774;52.664;5.074;2022-12-15T14:00:18;8.00;;;1.67;;
44110;SDS011;29774;52.664;5.074;2022-12-15T14:02:44;3.88;;;1.23;;
44110;SDS011;29774;52.664;5.074;2022-12-15T14:07:42;5.50;;;1.45;;
44110;SDS011;29774;52.664;5.074;2022-12-15T14:10:24;3.00;;;1.00;;
44110;SDS011;29774;52.664;5.074;2022-12-15T14:12:55;5.78;;;1.17;;
44110;SDS011;29774;52.664;5.074;2022-12-15T14:15:29;6.25;;;1.60;;
44110;SDS011;29774;52.664;5.074;2022-12-15T14:17:57;5.63;;;1.27;;
44110;SDS011;29774;52.664;5.074;2022-12-15T14:20:29;6.00;;;1.50;;
44110;SDS011;29774;52.664;5.074;2022-12-15T14:22:56;4.20;;;1.70;;
44110;SDS011;29774;52.664;5.074;2022-12-15T14:25:29;3.95;;;1.13;;
44110;SDS011;29774;52.664;5.074;2022-12-15T14:27:55;6.10;;;1.20;;
44110;SDS011;29774;52.664;5.074;2022-12-15T14:30:30;9.10;;;1.60;;
44110;SDS011;29774;52.664;5.074;2022-12-15T14:35:41;4.57;;;1.50;;
44110;SDS011;29774;52.664;5.074;2022-12-15T14:38:10;2.22;;;1.20;;
44110;SDS011;29774;52.664;5.074;2022-12-15T14:40:44;5.45;;;1.17;;
44110;SDS011;29774;52.664;5.074;2022-12-15T14:43:19;3.45;;;1.42;;
44110;SDS011;29774;52.664;5.074;2022-12-15T14:48:44;5.05;;;1.05;;
44110;SDS011;29774;52.664;5.074;2022-12-15T14:51:17;5.47;;;1.20;;
44110;SDS011;29774;52.664;5.074;2022-12-15T14:53:45;6.38;;;1.42;;
44110;SDS011;29774;52.664;5.074;2022-12-15T14:58:46;6.07;;;1.48;;
44110;SDS011;29774;52.664;5.074;2022-12-15T15:01:22;5.93;;;1.33;;
44110;SDS011;29774;52.664;5.074;2022-12-15T15:04:01;8.27;;;1.90;;
44110;SDS011;29774;52.664;5.074;2022-12-15T15:06:37;4.72;;;2.10;;
44110;SDS011;29774;52.664;5.074;2022-12-15T15:11:56;8.23;;;1.45;;
44110;SDS011;29774;52.664;5.074;2022-12-15T15:14:27;5.60;;;1.50;;
44110;SDS011;29774;52.664;5.074;2022-12-15T15:19:47;5.15;;;1.35;;
44110;SDS011;29774;52.664;5.074;2022-12-15T15:22:25;2.80;;;1.90;;
44110;SDS011;29774;52.664;5.074;2022-12-15T15:24:58;7.20;;;3.00;;
44110;SDS011;29774;52.664;5.074;2022-12-15T15:27:25;4.30;;;1.30;;
44110;SDS011;29774;52.664;5.074;2022-12-15T15:30:13;7.05;;;1.50;;
44110;SDS011;29774;52.664;5.074;2022-12-15T15:32:52;7.35;;;1.58;;
44110;SDS011;29774;52.664;5.074;2022-12-15T15:35:19;4.57;;;1.30;;
44110;SDS011;29774;52.664;5.074;2022-12-15T15:37:45;2.08;;;1.08;;
44110;SDS011;29774;52.664;5.074;2022-12-15T15:40:12;4.60;;;1.38;;
44110;SDS011;29774;52.664;5.074;2022-12-15T15:42:40;4.40;;;1.80;;
44110;SDS011;29774;52.664;5.074;2022-12-15T15:45:09;6.50;;;2.85;;
44110;SDS011;29774;52.664;5.074;2022-12-15T15:47:39;3.25;;;2.03;;
44110;SDS011;29774;52.664;5.074;2022-12-15T15:50:10;4.03;;;1.67;;
44110;SDS011;29774;52.664;5.074;2022-12-15T15:52:37;4.15;;;1.67;;
44110;SDS011;29774;52.664;5.074;2022-12-15T15:55:03;2.03;;;1.13;;
44110;SDS011;29774;52.664;5.074;2022-12-15T15:57:29;6.05;;;1.48;;
44110;SDS011;29774;52.664;5.074;2022-12-15T15:59:54;4.18;;;1.27;;
44110;SDS011;29774;52.664;5.074;2022-12-15T16:02:21;3.35;;;1.40;;
44110;SDS011;29774;52.664;5.074;2022-12-15T16:04:47;2.30;;;1.10;;
44110;SDS011;29774;52.664;5.074;2022-12-15T16:07:15;3.08;;;0.90;;
44110;SDS011;29774;52.664;5.074;2022-12-15T16:09:46;2.20;;;0.80;;
44110;SDS011;29774;52.664;5.074;2022-12-15T16:12:19;3.00;;;1.27;;
44110;SDS011;29774;52.664;5.074;2022-12-15T16:14:47;3.85;;;1.27;;
44110;SDS011;29774;52.664;5.074;2022-12-15T16:17:13;1.70;;;0.90;;
44110;SDS011;29774;52.664;5.074;2022-12-15T16:19:40;8.63;;;4.55;;
44110;SDS011;29774;52.664;5.074;2022-12-15T16:22:07;3.60;;;2.42;;
44110;SDS011;29774;52.664;5.074;2022-12-15T16:24:39;2.10;;;1.20;;
44110;SDS011;29774;52.664;5.074;2022-12-15T16:27:04;1.63;;;0.68;;
44110;SDS011;29774;52.664;5.074;2022-12-15T16:29:30;2.15;;;0.95;;
44110;SDS011;29774;52.664;5.074;2022-12-15T16:31:55;3.25;;;0.90;;
44110;SDS011;29774;52.664;5.074;2022-12-15T16:34:21;1.30;;;0.93;;
44110;SDS011;29774;52.664;5.074;2022-12-15T16:36:48;3.67;;;0.93;;
44110;SDS011;29774;52.664;5.074;2022-12-15T16:39:27;1.38;;;1.00;;
44110;SDS011;29774;52.664;5.074;2022-12-15T16:41:57;1.65;;;1.10;;
44110;SDS011;29774;52.664;5.074;2022-12-15T16:44:24;3.88;;;1.42;;
44110;SDS011;29774;52.664;5.074;2022-12-15T16:46:51;2.42;;;1.35;;
44110;SDS011;29774;52.664;5.074;2022-12-15T16:49:17;4.30;;;1.70;;
44110;SDS011;29774;52.664;5.074;2022-12-15T16:51:43;3.58;;;1.92;;
44110;SDS011;29774;52.664;5.074;2022-12-15T16:54:21;4.50;;;3.30;;
44110;SDS011;29774;52.664;5.074;2022-12-15T16:56:49;6.38;;;3.42;;
44110;SDS011;29774;52.664;5.074;2022-12-15T16:59:17;5.03;;;2.45;;
44110;SDS011;29774;52.664;5.074;2022-12-15T17:01:44;3.85;;;2.00;;
44110;SDS011;29774;52.664;5.074;2022-12-15T17:04:10;4.50;;;2.55;;
44110;SDS011;29774;52.664;5.074;2022-12-15T17:06:36;4.65;;;2.53;;
44110;SDS011;29774;52.664;5.074;2022-12-15T17:09:02;3.67;;;2.58;;
44110;SDS011;29774;52.664;5.074;2022-12-15T17:11:29;2.97;;;2.35;;
44110;SDS011;29774;52.664;5.074;2022-12-15T17:13:55;4.35;;;2.40;;
44110;SDS011;29774;52.664;5.074;2022-12-15T17:16:23;3.47;;;1.95;;
44110;SDS011;29774;52.664;5.074;2022-12-15T17:18:50;2.97;;;1.50;;
44110;SDS011;29774;52.664;5.074;2022-12-15T17:21:23;4.90;;;1.88;;
44110;SDS011;29774;52.664;5.074;2022-12-15T17:23:54;4.80;;;2.08;;
44110;SDS011;29774;52.664;5.074;2022-12-15T17:26:25;1.92;;;1.38;;
44110;SDS011;29774;52.664;5.074;2022-12-15T17:28:52;3.03;;;1.83;;
44110;SDS011;29774;52.664;5.074;2022-12-15T17:31:20;3.05;;;2.75;;
44110;SDS011;29774;52.664;5.074;2022-12-15T17:33:47;11.38;;;6.95;;
44110;SDS011;29774;52.664;5.074;2022-12-15T17:36:15;8.35;;;6.30;;
44110;SDS011;29774;52.664;5.074;2022-12-15T17:38:44;6.75;;;3.55;;
44110;SDS011;29774;52.664;5.074;2022-12-15T17:41:13;7.03;;;3.80;;
44110;SDS011;29774;52.664;5.074;2022-12-15T17:43:39;7.28;;;3.78;;
44110;SDS011;29774;52.664;5.074;2022-12-15T17:46:05;7.88;;;4.97;;
44110;SDS011;29774;52.664;5.074;2022-12-15T17:48:31;7.15;;;4.32;;
44110;SDS011;29774;52.664;5.074;2022-12-15T17:50:57;5.40;;;3.95;;
44110;SDS011;29774;52.664;5.074;2022-12-15T17:53:23;5.18;;;2.80;;
44110;SDS011;29774;52.664;5.074;2022-12-15T17:55:49;7.07;;;4.53;;